createdAt,value
2023-05-05T00:00:38.124Z,98922.91
2023-05-05T00:03:43.030Z,98927.22
2023-05-05T00:06:46.379Z,98924.31
2023-05-05T00:09:50.018Z,98929.22
2023-05-05T00:12:53.454Z,98932.66
2023-05-05T00:15:56.689Z,98920.31
2023-05-05T00:19:00.396Z,98935.38
2023-05-05T00:22:03.968Z,98930.12
2023-05-05T00:25:07.193Z,98908.06
2023-05-05T00:28:14.340Z,98924.09
2023-05-05T00:31:17.852Z,98925.06
2023-05-05T00:34:21.859Z,98914.53
2023-05-05T00:37:26.008Z,98913.91
2023-05-05T00:40:29.196Z,98922.56
2023-05-05T00:43:32.773Z,98917.34
2023-05-05T00:46:36.009Z,98917.53
2023-05-05T00:49:39.757Z,98916.81
2023-05-05T00:52:45.188Z,98909.06
2023-05-05T00:55:48.890Z,98912.66
2023-05-05T00:58:52.860Z,98904.88
2023-05-05T01:01:56.374Z,98895.19
2023-05-05T01:05:00.339Z,98890.91
2023-05-05T01:08:33.140Z,98902.78
2023-05-05T01:11:46.818Z,98907.25
2023-05-05T01:15:23.173Z,98871.34
2023-05-05T01:18:42.389Z,98900.34
2023-05-05T01:21:51.810Z,98890.69
2023-05-05T01:25:12.241Z,98889.00
2023-05-05T01:28:42.815Z,98883.47
2023-05-05T01:31:52.108Z,98890.53
2023-05-05T01:35:02.029Z,98892.25
2023-05-05T01:38:12.541Z,98889.88
2023-05-05T01:41:20.001Z,98884.50
2023-05-05T01:44:24.725Z,98885.41
2023-05-05T01:47:29.537Z,98880.97
2023-05-05T01:50:32.985Z,98886.47
2023-05-05T01:53:38.274Z,98872.00
2023-05-05T01:56:42.526Z,98878.13
2023-05-05T01:59:47.392Z,98878.38
2023-05-05T02:02:52.646Z,98884.53
2023-05-05T02:05:58.451Z,98880.13
2023-05-05T02:09:03.396Z,98866.84
2023-05-05T02:12:07.660Z,98880.78
2023-05-05T02:15:12.520Z,98877.31
2023-05-05T02:18:16.002Z,98880.72
2023-05-05T02:21:21.072Z,98878.09
2023-05-05T02:24:25.161Z,98877.31
2023-05-05T02:27:28.671Z,98875.69
2023-05-05T02:30:35.063Z,98885.53
2023-05-05T02:33:39.461Z,98882.34
2023-05-05T02:36:48.215Z,98874.72
2023-05-05T02:39:59.191Z,98874.41
2023-05-05T02:43:09.021Z,98874.78
2023-05-05T02:46:12.170Z,98870.84
2023-05-05T02:49:17.831Z,98845.88
2023-05-05T02:52:21.191Z,98874.97
2023-05-05T02:55:27.050Z,98848.84
2023-05-05T02:58:35.332Z,98879.78
2023-05-05T03:02:00.728Z,98882.66
2023-05-05T03:05:13.087Z,98878.38
2023-05-05T03:09:05.623Z,98876.69
2023-05-05T03:12:11.693Z,98886.69
2023-05-05T03:15:16.646Z,98878.69
2023-05-05T03:18:23.055Z,98879.28
2023-05-05T03:21:30.787Z,98880.34
2023-05-05T03:24:34.986Z,98884.00
2023-05-05T03:27:38.396Z,98882.25
2023-05-05T03:30:42.923Z,98861.38
2023-05-05T03:33:46.530Z,98866.78
2023-05-05T03:36:51.068Z,98881.97
2023-05-05T03:39:54.557Z,98884.53
2023-05-05T03:42:58.464Z,98866.56
2023-05-05T03:46:01.977Z,98882.59
2023-05-05T03:49:05.182Z,98880.75
2023-05-05T03:52:13.176Z,98886.03
2023-05-05T03:55:17.315Z,98877.00
2023-05-05T03:58:21.526Z,98889.44
2023-05-05T04:01:25.977Z,98890.28
2023-05-05T04:04:29.586Z,98885.53
2023-05-05T04:07:36.449Z,98887.13
2023-05-05T04:10:40.843Z,98891.28
2023-05-05T04:13:44.819Z,98903.47
2023-05-05T04:16:49.020Z,98896.94
2023-05-05T04:19:52.547Z,98906.59
2023-05-05T04:22:57.448Z,98906.31
2023-05-05T04:26:00.543Z,98906.13
2023-05-05T04:29:05.067Z,98897.81
2023-05-05T04:32:08.182Z,98891.38
2023-05-05T04:35:12.648Z,98896.25
2023-05-05T04:38:16.231Z,98895.91
2023-05-05T04:41:20.357Z,98904.91
2023-05-05T04:44:23.563Z,98904.00
2023-05-05T04:47:26.929Z,98904.00
2023-05-05T04:50:30.592Z,98913.00
2023-05-05T04:53:33.939Z,98911.94
2023-05-05T04:56:38.106Z,98912.19
2023-05-05T04:59:42.094Z,98930.91
2023-05-05T05:02:45.906Z,98930.91
2023-05-05T05:05:51.305Z,98933.78
2023-05-05T05:08:56.216Z,98930.38
2023-05-05T05:12:03.137Z,98935.78
2023-05-05T05:15:06.311Z,98943.94
2023-05-05T05:18:11.128Z,98944.28
2023-05-05T05:21:14.944Z,98944.66
2023-05-05T05:24:18.061Z,98946.53
2023-05-05T05:27:22.427Z,98944.66
2023-05-05T05:30:27.707Z,98940.81
2023-05-05T05:33:31.789Z,98941.56
2023-05-05T05:36:35.134Z,98947.84
2023-05-05T05:39:39.757Z,98943.34
2023-05-05T05:42:46.633Z,98951.34
2023-05-05T05:45:50.200Z,98947.66
2023-05-05T05:48:53.843Z,98943.91
2023-05-05T05:51:57.183Z,98941.94
2023-05-05T05:55:01.896Z,98951.59
2023-05-05T05:58:05.227Z,98961.97
2023-05-05T06:01:08.724Z,98964.34
2023-05-05T06:04:14.128Z,98968.78
2023-05-05T06:07:18.156Z,98973.66
2023-05-05T06:10:28.106Z,98980.22
2023-05-05T06:13:31.606Z,98973.50
2023-05-05T06:16:34.642Z,98971.63
2023-05-05T06:19:40.963Z,98977.53
2023-05-05T06:22:44.628Z,98967.47
2023-05-05T06:25:51.052Z,98966.63
2023-05-05T06:28:54.304Z,98961.25
2023-05-05T06:31:58.366Z,98967.78
2023-05-05T06:35:03.427Z,98959.16
2023-05-05T06:38:06.676Z,98961.25
2023-05-05T06:41:09.662Z,98901.72
2023-05-05T06:44:15.146Z,98958.00
2023-05-05T06:47:18.168Z,98961.19
2023-05-05T06:50:21.294Z,98961.38
2023-05-05T06:53:25.254Z,98962.41
2023-05-05T06:56:28.913Z,98964.56
2023-05-05T06:59:32.634Z,98956.66
2023-05-05T07:02:37.214Z,98964.84
2023-05-05T07:05:41.405Z,98953.06
2023-05-05T07:08:45.006Z,98961.09
2023-05-05T07:11:48.420Z,98949.50
2023-05-05T07:14:51.406Z,98958.88
2023-05-05T07:18:01.005Z,98958.13
2023-05-05T07:21:06.534Z,98958.41
2023-05-05T07:24:10.024Z,98954.53
2023-05-05T07:27:13.137Z,98928.19
2023-05-05T07:30:19.465Z,98959.53
2023-05-05T07:33:23.304Z,98949.97
2023-05-05T07:36:28.013Z,98953.81
2023-05-05T07:39:31.972Z,98954.63
2023-05-05T07:42:35.589Z,98961.53
2023-05-05T07:45:39.474Z,98962.09
2023-05-05T07:48:43.453Z,98938.19
2023-05-05T07:51:49.575Z,98904.72
2023-05-05T07:54:55.155Z,98949.34
2023-05-05T07:57:58.531Z,98946.12
2023-05-05T08:01:03.298Z,98950.53
2023-05-05T08:04:06.782Z,98952.84
2023-05-05T08:07:10.408Z,98945.81
2023-05-05T08:10:15.055Z,98953.38
2023-05-05T08:13:18.445Z,98916.50
2023-05-05T08:16:23.042Z,98961.12
2023-05-05T08:19:29.526Z,98959.84
2023-05-05T08:22:33.960Z,98937.16
2023-05-05T08:25:38.000Z,98949.16
2023-05-05T08:28:41.341Z,98947.97
2023-05-05T08:31:44.852Z,98946.38
2023-05-05T08:34:49.301Z,98948.63
2023-05-05T08:37:52.841Z,98916.41
2023-05-05T08:40:56.993Z,98954.47
2023-05-05T08:44:00.766Z,98959.81
2023-05-05T08:47:05.888Z,98957.16
2023-05-05T08:50:11.843Z,98950.50
2023-05-05T08:53:22.842Z,98953.47
2023-05-05T08:56:39.532Z,98954.97
2023-05-05T08:59:43.526Z,98950.03
2023-05-05T09:02:47.894Z,98877.34
2023-05-05T09:05:52.816Z,98939.56
2023-05-05T09:08:57.617Z,98891.34
2023-05-05T09:12:06.364Z,98936.78
2023-05-05T09:15:15.219Z,98936.59
2023-05-05T09:18:23.160Z,98940.72
2023-05-05T09:21:27.332Z,98939.38
2023-05-05T09:24:31.394Z,98890.78
2023-05-05T09:27:42.805Z,98837.47
2023-05-05T09:30:48.206Z,98927.56
2023-05-05T09:33:51.343Z,98930.19
2023-05-05T09:36:56.098Z,98864.81
2023-05-05T09:40:02.986Z,98924.47
2023-05-05T09:43:07.328Z,98927.16
2023-05-05T09:46:10.855Z,98918.03
2023-05-05T09:49:17.690Z,98916.38
2023-05-05T09:52:21.721Z,98921.91
2023-05-05T09:55:26.371Z,98906.19
2023-05-05T09:58:30.958Z,98910.53
2023-05-05T10:01:34.109Z,98904.28
2023-05-05T10:04:37.874Z,98902.59
2023-05-05T10:07:46.814Z,98905.19
2023-05-05T10:10:56.768Z,98908.63
2023-05-05T10:14:00.745Z,98909.84
2023-05-05T10:17:05.407Z,98885.69
2023-05-05T10:20:10.496Z,98799.69
2023-05-05T10:23:19.178Z,98901.38
2023-05-05T10:26:23.622Z,98898.88
2023-05-05T10:30:07.770Z,98893.63
2023-05-05T10:36:31.892Z,98883.50
2023-05-05T10:39:37.970Z,98883.28
2023-05-05T10:42:43.665Z,98888.84
2023-05-05T10:45:51.450Z,98880.28
2023-05-05T10:49:27.747Z,98870.78
2023-05-05T10:52:50.250Z,98880.00
2023-05-05T10:56:15.975Z,98870.38
2023-05-05T10:59:39.679Z,98866.53
2023-05-05T11:02:43.841Z,98881.37
2023-05-05T11:06:23.490Z,98861.06
2023-05-05T11:09:28.252Z,98723.59
2023-05-05T11:12:36.138Z,98856.69
2023-05-05T11:15:42.699Z,98846.72
2023-05-05T11:18:46.202Z,98845.69
2023-05-05T11:22:03.146Z,98841.66
2023-05-05T11:25:36.217Z,98814.16
2023-05-05T11:29:07.303Z,98854.09
2023-05-05T11:32:14.822Z,98790.09
2023-05-05T11:35:19.120Z,98837.88
2023-05-05T11:38:57.803Z,98831.00
2023-05-05T11:42:21.104Z,98833.69
2023-05-05T11:45:25.324Z,98818.91
2023-05-05T11:48:28.823Z,98817.25
2023-05-05T11:51:34.185Z,98818.59
2023-05-05T11:54:50.195Z,98813.63
2023-05-05T11:57:54.449Z,98810.03
2023-05-05T12:00:58.644Z,98816.28
2023-05-05T12:04:03.892Z,98807.25
2023-05-05T12:07:08.813Z,98672.28
2023-05-05T12:10:12.460Z,98811.66
2023-05-05T12:13:20.443Z,98808.38
2023-05-05T12:16:26.759Z,98798.88
2023-05-05T12:19:36.586Z,98801.44
2023-05-05T12:22:47.420Z,98797.69
2023-05-05T12:25:52.598Z,98784.31
2023-05-05T12:28:58.326Z,98792.69
2023-05-05T12:32:02.262Z,98762.78
2023-05-05T12:35:07.919Z,98780.44
2023-05-05T12:38:12.153Z,98783.81
2023-05-05T12:41:21.647Z,98781.03
2023-05-05T12:44:24.585Z,98759.06
2023-05-05T12:47:37.024Z,98755.59
2023-05-05T12:50:40.284Z,98762.66
2023-05-05T12:53:43.927Z,98773.41
2023-05-05T12:56:48.316Z,98774.63
2023-05-05T12:59:53.303Z,98763.72
2023-05-05T13:02:58.174Z,98763.84
2023-05-05T13:06:20.186Z,98747.03
2023-05-05T13:09:28.202Z,98757.03
2023-05-05T13:12:33.095Z,98749.50
2023-05-05T13:15:39.536Z,98728.13
2023-05-05T13:18:50.117Z,98719.34
2023-05-05T13:21:58.987Z,98738.50
2023-05-05T13:25:02.574Z,98738.78
2023-05-05T13:28:06.176Z,98743.06
2023-05-05T13:31:09.738Z,98718.00
2023-05-05T13:34:12.718Z,98698.53
2023-05-05T13:37:16.455Z,98707.88
2023-05-05T13:40:20.866Z,98732.41
2023-05-05T13:43:24.169Z,98710.59
2023-05-05T13:46:31.282Z,98720.44
2023-05-05T13:49:35.701Z,98593.00
2023-05-05T13:52:39.483Z,98635.22
2023-05-05T13:55:44.769Z,98700.66
2023-05-05T13:58:48.182Z,98713.37
2023-05-05T14:01:52.161Z,98700.31
2023-05-05T14:04:55.969Z,98698.44
2023-05-05T14:07:59.663Z,98699.78
2023-05-05T14:11:18.393Z,98688.19
2023-05-05T14:14:23.899Z,98673.97
2023-05-05T14:17:28.799Z,98696.50
2023-05-05T14:20:34.802Z,98623.91
2023-05-05T14:23:39.053Z,98690.44
2023-05-05T14:26:45.153Z,98573.34
2023-05-05T14:29:49.189Z,98680.09
2023-05-05T14:32:52.997Z,98680.53
2023-05-05T14:35:58.001Z,98680.09
2023-05-05T14:39:02.154Z,98681.63
2023-05-05T14:42:06.032Z,98575.94
2023-05-05T14:45:11.463Z,98684.97
2023-05-05T14:48:17.376Z,98683.37
2023-05-05T14:51:20.921Z,98679.38
2023-05-05T14:54:28.718Z,98685.59
2023-05-05T14:57:34.573Z,98681.81
2023-05-05T15:00:39.238Z,98684.19
2023-05-05T15:03:43.053Z,98561.81
2023-05-05T15:06:48.305Z,98680.63
2023-05-05T15:09:52.827Z,98592.19
2023-05-05T15:12:56.564Z,98653.69
2023-05-05T15:15:59.659Z,98650.59
2023-05-05T15:19:03.191Z,98663.28
2023-05-05T15:22:06.152Z,98667.87
2023-05-05T15:25:12.437Z,98682.47
2023-05-05T15:28:15.916Z,98674.44
2023-05-05T15:31:24.675Z,98672.72
2023-05-05T15:34:28.032Z,98673.50
2023-05-05T15:37:31.503Z,98664.97
2023-05-05T15:40:34.688Z,98666.81
2023-05-05T15:43:39.003Z,98665.69
2023-05-05T15:46:42.737Z,98664.81
2023-05-05T15:49:48.940Z,98656.00
2023-05-05T15:52:52.756Z,98662.03
2023-05-05T15:55:55.977Z,98644.53
2023-05-05T15:58:59.962Z,98597.66
2023-05-05T16:02:03.905Z,98657.16
2023-05-05T16:05:08.248Z,98612.28
2023-05-05T16:08:11.528Z,98654.66
2023-05-05T16:11:20.640Z,98648.31
2023-05-05T16:14:28.092Z,98648.06
2023-05-05T16:17:33.631Z,98486.53
2023-05-05T16:20:38.938Z,98653.72
2023-05-05T16:23:43.451Z,98646.91
2023-05-05T16:26:46.203Z,98651.28
2023-05-05T16:29:49.400Z,98638.72
2023-05-05T16:32:52.435Z,98638.22
2023-05-05T16:35:55.962Z,98638.84
2023-05-05T16:38:59.381Z,98638.63
2023-05-05T16:42:03.545Z,98641.19
2023-05-05T16:45:07.439Z,98640.09
2023-05-05T16:48:10.863Z,98641.09
2023-05-05T16:51:13.538Z,98636.72
2023-05-05T16:54:16.844Z,98641.78
2023-05-05T16:57:19.622Z,98640.03
2023-05-05T17:00:22.510Z,98636.41
2023-05-05T17:03:25.088Z,98639.75
2023-05-05T17:06:32.943Z,98638.28
2023-05-05T17:09:36.002Z,98625.56
2023-05-05T17:12:39.305Z,98634.03
2023-05-05T17:15:43.591Z,98623.81
2023-05-05T17:18:46.890Z,98631.13
2023-05-05T17:21:49.723Z,98628.97
2023-05-05T17:24:52.739Z,98632.72
2023-05-05T17:27:57.999Z,98630.84
2023-05-05T17:31:01.635Z,98626.63
2023-05-05T17:34:05.056Z,98614.28
2023-05-05T17:37:09.990Z,98632.28
2023-05-05T17:40:13.244Z,98637.63
2023-05-05T17:43:17.395Z,98634.47
2023-05-05T17:46:21.177Z,98634.47
2023-05-05T17:49:25.669Z,98635.69
2023-05-05T17:52:29.651Z,98643.84
2023-05-05T17:55:33.097Z,98644.16
2023-05-05T17:58:38.795Z,98608.63
2023-05-05T18:01:49.794Z,98644.53
2023-05-05T18:04:53.339Z,98643.72
2023-05-05T18:07:57.499Z,98644.63
2023-05-05T18:11:02.406Z,98502.97
2023-05-05T18:14:05.909Z,98656.09
2023-05-05T18:17:09.795Z,98542.75
2023-05-05T18:20:13.066Z,98647.97
2023-05-05T18:23:17.099Z,98649.03
2023-05-05T18:26:21.298Z,98505.53
2023-05-05T18:29:25.547Z,98662.84
2023-05-05T18:32:31.766Z,98659.19
2023-05-05T18:35:35.965Z,98671.22
2023-05-05T18:38:40.810Z,98663.81
2023-05-05T18:41:44.142Z,98669.28
2023-05-05T18:44:47.684Z,98666.69
2023-05-05T18:47:51.292Z,98670.56
2023-05-05T18:50:55.459Z,98627.84
2023-05-05T18:54:01.419Z,98662.41
2023-05-05T18:57:04.857Z,98672.28
2023-05-05T19:00:10.614Z,98643.31
2023-05-05T19:03:13.830Z,98677.09
2023-05-05T19:06:18.377Z,98681.31
2023-05-05T19:09:23.378Z,98685.47
2023-05-05T19:12:27.458Z,98687.31
2023-05-05T19:15:33.241Z,98685.97
2023-05-05T19:18:36.916Z,98696.53
2023-05-05T19:21:40.847Z,98687.41
2023-05-05T19:24:44.803Z,98693.91
2023-05-05T19:27:48.289Z,98687.59
2023-05-05T19:30:52.773Z,98680.63
2023-05-05T19:34:01.643Z,98685.19
2023-05-05T19:37:07.901Z,98688.97
2023-05-05T19:40:13.122Z,98680.16
2023-05-05T19:43:17.610Z,98674.94
2023-05-05T19:46:27.447Z,98679.38
2023-05-05T19:49:33.130Z,98661.09
2023-05-05T19:52:38.715Z,98685.44
2023-05-05T19:55:42.653Z,98522.56
2023-05-05T19:59:04.586Z,98672.84
2023-05-05T20:02:10.507Z,98680.16
2023-05-05T20:05:16.413Z,98541.78
2023-05-05T20:08:19.937Z,98675.31
2023-05-05T20:11:25.308Z,98677.94
2023-05-05T20:14:29.421Z,98622.75
2023-05-05T20:17:33.980Z,98664.88
2023-05-05T20:20:37.385Z,98665.38
2023-05-05T20:23:43.504Z,98636.31
2023-05-05T20:26:47.074Z,98676.66
2023-05-05T20:29:53.336Z,98559.63
2023-05-05T20:32:58.428Z,98676.91
2023-05-05T20:36:02.542Z,98505.94
2023-05-05T20:39:06.181Z,98512.00
2023-05-05T20:42:10.113Z,98665.03
2023-05-05T20:45:15.459Z,98662.53
2023-05-05T20:48:19.043Z,98663.69
2023-05-05T20:51:23.188Z,98668.56
2023-05-05T20:54:34.637Z,98618.47
2023-05-05T20:57:37.910Z,98663.22
2023-05-05T21:00:45.755Z,98661.56
2023-05-05T21:03:49.235Z,98659.22
2023-05-05T21:06:55.144Z,98661.25
2023-05-05T21:09:59.346Z,98649.78
2023-05-05T21:13:04.447Z,98649.22
2023-05-05T21:16:09.146Z,98656.19
2023-05-05T21:19:13.143Z,98650.94
2023-05-05T21:22:18.120Z,98644.84
2023-05-05T21:25:22.253Z,98654.16
2023-05-05T21:28:26.382Z,98653.28
2023-05-05T21:31:30.311Z,98652.69
2023-05-05T21:34:33.717Z,98531.47
2023-05-05T21:37:38.538Z,98644.16
2023-05-05T21:40:43.149Z,98634.84
2023-05-05T21:43:48.088Z,98643.06
2023-05-05T21:46:55.754Z,98640.16
2023-05-05T21:50:00.297Z,98636.84
2023-05-05T21:53:03.323Z,98629.06
2023-05-05T21:56:11.065Z,98624.62
2023-05-05T21:59:15.312Z,98627.63
2023-05-05T22:02:21.595Z,98621.87
2023-05-05T22:05:26.077Z,98620.13
2023-05-05T22:08:29.762Z,98619.16
2023-05-05T22:11:33.709Z,98612.19
2023-05-05T22:14:36.834Z,98561.22
2023-05-05T22:17:42.605Z,98612.19
2023-05-05T22:20:47.006Z,98612.38
2023-05-05T22:23:51.663Z,98618.75
2023-05-05T22:26:57.945Z,98420.50
2023-05-05T22:30:02.557Z,98620.97
2023-05-05T22:33:06.530Z,98621.75
2023-05-05T22:36:10.675Z,98626.94
2023-05-05T22:39:14.210Z,98613.56
2023-05-05T22:42:18.834Z,98621.94
2023-05-05T22:45:23.614Z,98624.66
2023-05-05T22:48:27.875Z,98630.78
2023-05-05T22:51:31.855Z,98630.78
2023-05-05T22:54:36.240Z,98505.31
2023-05-05T22:57:43.305Z,98637.69
2023-05-05T23:00:50.459Z,98624.62
2023-05-05T23:03:53.952Z,98635.88
2023-05-05T23:06:58.753Z,98629.69
2023-05-05T23:10:02.558Z,98639.28
2023-05-05T23:13:06.397Z,98639.72
2023-05-05T23:16:09.960Z,98634.19
2023-05-05T23:19:15.111Z,98435.12
2023-05-05T23:22:19.501Z,98635.41
2023-05-05T23:25:23.463Z,98636.22
2023-05-05T23:28:27.547Z,98629.06
2023-05-05T23:31:31.860Z,98626.41
2023-05-05T23:34:35.190Z,98624.13
2023-05-05T23:37:41.942Z,98584.00
2023-05-05T23:40:45.246Z,98616.28
2023-05-05T23:43:49.243Z,98618.41
2023-05-05T23:46:52.424Z,98567.78
2023-05-05T23:49:58.617Z,98606.59
2023-05-05T23:53:02.121Z,98612.56
2023-05-05T23:56:07.003Z,98617.97
2023-05-05T23:59:10.022Z,98624.66
